createdAt,value
2023-03-18T00:03:19.766Z,3.38
2023-03-18T00:08:22.021Z,3.63
2023-03-18T00:13:24.232Z,2.92
2023-03-18T00:18:27.159Z,3.33
2023-03-18T00:23:29.085Z,3.75
2023-03-18T00:28:34.562Z,3.75
2023-03-18T00:33:45.490Z,3.33
2023-03-18T00:38:51.267Z,3.60
2023-03-18T00:43:54.336Z,3.67
2023-03-18T00:49:00.474Z,3.40
2023-03-18T00:54:07.274Z,3.65
2023-03-18T00:59:09.383Z,2.53
2023-03-18T01:04:11.648Z,4.15
2023-03-18T01:09:14.368Z,3.92
2023-03-18T01:14:16.310Z,3.38
2023-03-18T01:19:18.286Z,3.10
2023-03-18T01:24:20.452Z,4.85
2023-03-18T01:29:23.894Z,3.30
2023-03-18T01:34:26.146Z,3.83
2023-03-18T01:39:28.177Z,3.28
2023-03-18T01:44:31.096Z,3.35
2023-03-18T01:49:41.185Z,3.40
2023-03-18T01:54:55.627Z,3.47
2023-03-18T01:59:59.125Z,3.00
2023-03-18T02:05:06.458Z,4.13
2023-03-18T02:10:13.445Z,3.05
2023-03-18T02:15:18.573Z,3.10
2023-03-18T02:20:30.210Z,3.10
2023-03-18T02:25:52.086Z,4.35
2023-03-18T02:31:04.264Z,3.17
2023-03-18T02:36:11.926Z,3.65
2023-03-18T02:41:23.602Z,3.17
2023-03-18T02:46:49.745Z,4.13
2023-03-18T02:51:52.278Z,3.80
2023-03-18T02:56:55.488Z,3.50
2023-03-18T03:01:57.842Z,2.90
2023-03-18T03:07:01.644Z,3.60
2023-03-18T03:12:20.944Z,2.70
2023-03-18T03:17:27.114Z,3.15
2023-03-18T03:22:30.404Z,4.03
2023-03-18T03:27:33.034Z,3.22
2023-03-18T03:32:36.300Z,3.17
2023-03-18T03:37:38.265Z,3.13
2023-03-18T03:42:40.390Z,2.70
2023-03-18T03:47:46.731Z,3.60
2023-03-18T03:52:49.481Z,3.17
2023-03-18T03:57:52.323Z,2.95
2023-03-18T04:02:54.926Z,3.30
2023-03-18T04:08:00.206Z,3.85
2023-03-18T04:13:11.661Z,2.97
2023-03-18T04:18:17.032Z,3.70
2023-03-18T04:23:19.905Z,3.45
2023-03-18T04:28:22.006Z,3.10
2023-03-18T04:33:25.091Z,3.00
2023-03-18T04:38:30.684Z,3.38
2023-03-18T04:43:32.898Z,3.22
2023-03-18T04:48:35.520Z,3.88
2023-03-18T04:53:42.336Z,3.15
2023-03-18T04:58:46.623Z,3.80
2023-03-18T05:03:57.279Z,2.97
2023-03-18T05:09:06.111Z,3.47
2023-03-18T05:14:09.760Z,3.20
2023-03-18T05:19:19.139Z,3.42
2023-03-18T05:24:29.601Z,2.88
2023-03-18T05:29:32.425Z,3.30
2023-03-18T05:34:47.163Z,2.97
2023-03-18T05:39:50.060Z,2.92
2023-03-18T05:44:55.365Z,3.38
2023-03-18T05:50:00.102Z,3.88
2023-03-18T05:55:03.389Z,3.25
2023-03-18T06:00:10.334Z,3.63
2023-03-18T06:05:19.169Z,3.78
2023-03-18T06:10:23.470Z,3.30
2023-03-18T06:15:26.753Z,3.63
2023-03-18T06:20:29.089Z,3.40
2023-03-18T06:25:32.215Z,3.47
2023-03-18T06:30:34.651Z,3.65
2023-03-18T06:35:36.630Z,3.40
2023-03-18T06:40:39.113Z,3.78
2023-03-18T06:45:42.511Z,3.45
2023-03-18T06:50:45.589Z,3.28
2023-03-18T06:55:57.661Z,3.10
2023-03-18T07:01:04.342Z,3.03
2023-03-18T07:06:15.519Z,3.08
2023-03-18T07:11:19.646Z,3.88
2023-03-18T07:16:21.820Z,3.25
2023-03-18T07:21:25.103Z,2.95
2023-03-18T07:26:27.970Z,2.92
2023-03-18T07:31:30.997Z,3.33
2023-03-18T07:36:33.407Z,3.75
2023-03-18T07:41:37.739Z,2.90
2023-03-18T07:46:39.756Z,4.45
2023-03-18T07:51:41.985Z,5.53
2023-03-18T07:56:44.691Z,4.82
2023-03-18T08:01:46.879Z,4.40
2023-03-18T08:06:49.500Z,3.03
2023-03-18T08:11:51.356Z,3.40
2023-03-18T08:16:53.299Z,3.38
2023-03-18T08:21:58.106Z,3.70
2023-03-18T08:26:59.982Z,3.42
2023-03-18T08:32:02.263Z,2.65
2023-03-18T08:37:05.120Z,3.05
2023-03-18T08:42:07.545Z,2.45
2023-03-18T08:47:09.490Z,3.17
2023-03-18T08:52:11.957Z,3.00
2023-03-18T08:57:14.033Z,3.25
2023-03-18T09:02:18.806Z,3.72
2023-03-18T09:07:20.695Z,3.30
2023-03-18T09:12:22.754Z,3.00
2023-03-18T09:17:35.883Z,3.42
2023-03-18T09:22:47.492Z,3.58
2023-03-18T09:27:49.755Z,2.65
2023-03-18T09:32:51.791Z,2.90
2023-03-18T09:37:54.192Z,2.58
2023-03-18T09:42:56.744Z,3.03
2023-03-18T09:48:20.471Z,2.58
2023-03-18T09:53:22.677Z,3.78
2023-03-18T09:58:33.653Z,4.40
2023-03-18T10:03:44.029Z,3.05
2023-03-18T10:09:01.768Z,2.70
2023-03-18T10:14:36.400Z,2.80
2023-03-18T10:20:04.697Z,2.92
2023-03-18T10:25:24.686Z,3.95
2023-03-18T10:30:30.129Z,3.00
2023-03-18T10:35:35.669Z,3.17
2023-03-18T10:40:41.547Z,2.30
2023-03-18T10:45:45.509Z,2.58
2023-03-18T10:51:17.039Z,3.28
2023-03-18T10:56:19.459Z,4.28
2023-03-18T11:01:25.419Z,2.95
2023-03-18T11:06:57.892Z,3.25
2023-03-18T11:12:06.059Z,3.35
2023-03-18T11:17:33.738Z,3.28
2023-03-18T11:22:38.131Z,3.60
2023-03-18T11:27:43.462Z,3.22
2023-03-18T11:33:11.998Z,3.22
2023-03-18T11:38:24.515Z,3.08
2023-03-18T11:43:28.379Z,3.50
2023-03-18T11:48:37.177Z,3.40
2023-03-18T11:53:39.242Z,3.63
2023-03-18T11:58:47.747Z,3.50
2023-03-18T12:03:52.913Z,3.97
2023-03-18T12:09:07.320Z,3.38
2023-03-18T12:14:12.167Z,3.55
2023-03-18T12:19:20.581Z,3.42
2023-03-18T12:24:52.691Z,4.10
2023-03-18T12:30:29.275Z,3.70
2023-03-18T12:35:49.442Z,4.43
2023-03-18T12:41:14.633Z,4.45
2023-03-18T12:46:41.610Z,4.55
2023-03-18T12:52:06.740Z,4.05
2023-03-18T12:57:21.287Z,4.55
2023-03-18T13:02:34.448Z,4.13
2023-03-18T13:08:15.350Z,4.15
2023-03-18T13:13:20.218Z,4.68
2023-03-18T13:18:31.972Z,4.25
2023-03-18T13:24:02.317Z,4.15
2023-03-18T13:30:02.632Z,5.57
2023-03-18T13:35:23.188Z,4.75
2023-03-18T13:41:22.404Z,3.53
2023-03-18T13:46:29.069Z,4.20
2023-03-18T13:51:31.254Z,3.70
2023-03-18T13:56:44.937Z,3.95
2023-03-18T14:01:50.854Z,4.90
2023-03-18T14:06:56.973Z,3.88
2023-03-18T14:12:40.753Z,4.35
2023-03-18T14:18:02.996Z,4.20
2023-03-18T14:23:29.363Z,4.38
2023-03-18T14:28:44.350Z,4.43
2023-03-18T14:33:57.789Z,4.55
2023-03-18T14:39:04.299Z,4.60
2023-03-18T14:44:22.193Z,4.32
2023-03-18T14:49:36.496Z,4.50
2023-03-18T14:54:43.818Z,5.18
2023-03-18T14:59:45.931Z,5.57
2023-03-18T15:04:56.619Z,4.45
2023-03-18T15:10:13.683Z,4.32
2023-03-18T15:15:20.063Z,4.05
2023-03-18T15:20:24.347Z,4.60
2023-03-18T15:25:26.573Z,4.72
2023-03-18T15:30:32.527Z,4.97
2023-03-18T15:35:35.659Z,4.97
2023-03-18T15:40:53.006Z,6.25
2023-03-18T15:45:59.041Z,4.90
2023-03-18T15:51:05.192Z,4.60
2023-03-18T15:56:32.177Z,4.43
2023-03-18T16:01:35.642Z,4.30
2023-03-18T16:06:38.728Z,5.13
2023-03-18T16:11:41.546Z,6.30
2023-03-18T16:16:43.640Z,5.30
2023-03-18T16:21:45.791Z,6.10
2023-03-18T16:26:47.884Z,5.05
2023-03-18T16:31:49.837Z,6.32
2023-03-18T16:36:53.704Z,5.55
2023-03-18T16:41:56.547Z,5.22
2023-03-18T16:46:58.649Z,6.75
2023-03-18T16:52:02.256Z,5.45
2023-03-18T16:57:05.375Z,4.80
2023-03-18T17:02:32.000Z,5.78
2023-03-18T17:07:37.076Z,5.90
2023-03-18T17:12:40.543Z,6.22
2023-03-18T17:17:43.251Z,5.75
2023-03-18T17:22:45.363Z,6.72
2023-03-18T17:27:55.821Z,6.32
2023-03-18T17:32:57.784Z,6.32
2023-03-18T17:38:00.342Z,6.43
2023-03-18T17:43:03.083Z,6.53
2023-03-18T17:48:20.204Z,6.10
2023-03-18T17:53:22.019Z,5.78
2023-03-18T17:58:26.663Z,6.40
2023-03-18T18:03:29.928Z,6.25
2023-03-18T18:08:31.927Z,6.70
2023-03-18T18:13:33.845Z,7.07
2023-03-18T18:18:36.631Z,6.85
2023-03-18T18:23:39.343Z,7.15
2023-03-18T18:28:48.304Z,6.88
2023-03-18T18:33:50.565Z,6.60
2023-03-18T18:38:52.857Z,6.53
2023-03-18T18:43:55.723Z,6.38
2023-03-18T18:48:57.948Z,6.13
2023-03-18T18:54:00.247Z,7.35
2023-03-18T18:59:07.336Z,7.95
2023-03-18T19:04:15.781Z,6.60
2023-03-18T19:09:23.983Z,7.35
2023-03-18T19:14:28.538Z,8.25
2023-03-18T19:19:35.003Z,9.18
2023-03-18T19:24:37.380Z,7.80
2023-03-18T19:29:39.185Z,8.13
2023-03-18T19:34:41.847Z,8.27
2023-03-18T19:39:47.627Z,7.35
2023-03-18T19:44:50.065Z,9.73
2023-03-18T19:49:52.175Z,9.50
2023-03-18T19:54:55.310Z,8.82
2023-03-18T19:59:59.580Z,10.68
2023-03-18T20:05:15.770Z,9.43
2023-03-18T20:10:19.756Z,9.65
2023-03-18T20:15:25.222Z,8.02
2023-03-18T20:20:30.806Z,9.15
2023-03-18T20:54:12.487Z,7.07
2023-03-18T20:59:14.751Z,7.82
2023-03-18T21:04:17.094Z,8.90
2023-03-18T21:09:19.019Z,8.95
2023-03-18T21:14:21.579Z,9.93
2023-03-18T21:19:23.617Z,8.52
2023-03-18T21:24:27.907Z,8.52
2023-03-18T21:29:29.834Z,7.88
2023-03-18T21:40:04.186Z,7.90
2023-03-18T21:45:11.735Z,8.50
2023-03-18T21:50:26.309Z,7.65
2023-03-18T21:55:28.197Z,7.97
2023-03-18T22:00:30.543Z,7.68
2023-03-18T22:12:03.874Z,7.10
2023-03-18T22:17:22.921Z,7.25
2023-03-18T22:22:28.546Z,7.70
2023-03-18T22:27:32.223Z,7.00
2023-03-18T22:38:05.172Z,7.57
2023-03-18T22:55:55.000Z,7.63
2023-03-18T23:00:57.284Z,7.97
2023-03-18T23:06:00.576Z,7.53
2023-03-18T23:11:02.746Z,7.00
2023-03-18T23:16:07.490Z,7.35
2023-03-18T23:21:16.163Z,7.22
2023-03-18T23:26:18.745Z,7.75
2023-03-18T23:31:20.930Z,7.05
2023-03-18T23:36:22.865Z,7.15
2023-03-18T23:41:24.835Z,6.80
2023-03-18T23:46:27.010Z,6.82
2023-03-18T23:57:08.161Z,7.13
